createdAt,value
2022-08-24T00:02:04.564Z,18.10
2022-08-24T00:04:34.372Z,18.00
2022-08-24T00:07:03.281Z,17.90
2022-08-24T00:09:33.078Z,17.90
2022-08-24T00:12:01.847Z,17.80
2022-08-24T00:14:31.808Z,17.80
2022-08-24T00:17:01.026Z,17.80
2022-08-24T00:19:30.147Z,17.80
2022-08-24T00:22:00.226Z,17.70
2022-08-24T00:24:29.113Z,17.70
2022-08-24T00:26:57.721Z,17.70
2022-08-24T00:29:26.864Z,17.60
2022-08-24T00:31:56.876Z,17.60
2022-08-24T00:34:26.635Z,17.60
2022-08-24T00:36:55.689Z,17.60
2022-08-24T00:39:24.326Z,17.60
2022-08-24T00:41:53.121Z,17.60
2022-08-24T00:44:23.272Z,17.50
2022-08-24T00:46:56.858Z,17.50
2022-08-24T00:49:30.110Z,17.50
2022-08-24T00:52:04.609Z,17.60
2022-08-24T00:54:41.659Z,17.60
2022-08-24T00:57:15.815Z,17.60
2022-08-24T00:59:46.457Z,17.70
2022-08-24T01:02:16.400Z,17.70
2022-08-24T01:04:49.070Z,17.70
2022-08-24T01:07:18.409Z,17.70
2022-08-24T01:09:47.100Z,17.70
2022-08-24T01:12:16.784Z,17.60
2022-08-24T01:14:45.904Z,17.60
2022-08-24T01:17:35.110Z,17.60
2022-08-24T01:20:10.133Z,17.50
2022-08-24T01:22:48.406Z,17.50
2022-08-24T01:25:18.643Z,17.60
2022-08-24T01:27:47.581Z,17.50
2022-08-24T01:30:18.185Z,17.50
2022-08-24T01:32:54.632Z,17.50
2022-08-24T01:35:23.795Z,17.50
2022-08-24T01:37:52.778Z,17.50
2022-08-24T01:40:27.270Z,17.50
2022-08-24T01:42:55.942Z,17.50
2022-08-24T01:45:24.557Z,17.50
2022-08-24T01:47:53.178Z,17.40
2022-08-24T01:50:22.928Z,17.40
2022-08-24T01:53:08.834Z,17.30
2022-08-24T01:55:38.959Z,17.20
2022-08-24T01:58:08.205Z,17.20
2022-08-24T02:00:37.537Z,17.10
2022-08-24T02:03:06.887Z,17.00
2022-08-24T02:05:36.531Z,17.00
2022-08-24T02:08:05.319Z,17.00
2022-08-24T02:10:35.265Z,17.00
2022-08-24T02:13:08.434Z,17.10
2022-08-24T02:15:40.434Z,17.00
2022-08-24T02:18:14.924Z,17.10
2022-08-24T02:20:46.086Z,17.10
2022-08-24T02:23:14.898Z,17.10
2022-08-24T02:25:44.291Z,17.10
2022-08-24T02:28:14.574Z,17.10
2022-08-24T02:30:44.065Z,17.20
2022-08-24T02:33:12.999Z,17.10
2022-08-24T02:35:42.256Z,17.10
2022-08-24T02:38:11.381Z,17.10
2022-08-24T02:40:41.000Z,17.00
2022-08-24T02:43:11.124Z,17.00
2022-08-24T02:45:41.709Z,17.00
2022-08-24T02:48:11.125Z,17.00
2022-08-24T02:50:40.864Z,16.90
2022-08-24T02:53:09.973Z,17.00
2022-08-24T02:55:41.259Z,17.00
2022-08-24T02:58:10.696Z,16.90
2022-08-24T03:00:40.681Z,16.90
2022-08-24T03:03:11.566Z,16.90
2022-08-24T03:05:40.952Z,16.90
2022-08-24T03:08:10.673Z,16.80
2022-08-24T03:10:40.815Z,16.80
2022-08-24T03:13:10.067Z,16.80
2022-08-24T03:15:39.859Z,16.80
2022-08-24T03:18:08.442Z,16.80
2022-08-24T03:20:38.644Z,16.80
2022-08-24T03:23:07.485Z,16.80
2022-08-24T03:25:36.145Z,16.80
2022-08-24T03:28:08.660Z,16.80
2022-08-24T03:30:40.614Z,16.80
2022-08-24T03:33:12.180Z,16.80
2022-08-24T03:35:42.144Z,16.90
2022-08-24T03:38:12.805Z,16.90
2022-08-24T03:40:41.699Z,16.90
2022-08-24T03:43:31.243Z,17.00
2022-08-24T03:46:00.688Z,17.00
2022-08-24T03:48:29.741Z,17.10
2022-08-24T03:51:00.495Z,17.10
2022-08-24T03:53:29.142Z,17.20
2022-08-24T03:55:58.135Z,17.20
2022-08-24T03:58:28.495Z,17.30
2022-08-24T04:00:58.384Z,17.40
2022-08-24T04:03:28.224Z,17.50
2022-08-24T04:06:02.760Z,17.60
2022-08-24T04:08:32.744Z,17.60
2022-08-24T04:11:01.465Z,17.70
2022-08-24T04:13:32.097Z,17.70
2022-08-24T04:16:05.559Z,17.80
2022-08-24T04:18:34.241Z,17.90
2022-08-24T04:21:04.735Z,17.80
2022-08-24T04:23:47.248Z,17.90
2022-08-24T04:26:25.668Z,17.90
2022-08-24T04:29:09.472Z,18.00
2022-08-24T04:31:43.126Z,18.10
2022-08-24T04:34:14.909Z,18.20
2022-08-24T04:36:46.409Z,18.20
2022-08-24T04:39:15.685Z,18.30
2022-08-24T04:42:03.656Z,18.30
2022-08-24T04:44:37.932Z,18.40
2022-08-24T04:47:08.469Z,18.40
2022-08-24T04:49:38.895Z,18.50
2022-08-24T04:52:10.000Z,18.60
2022-08-24T04:54:38.911Z,18.70
2022-08-24T04:57:14.721Z,18.80
2022-08-24T04:59:47.353Z,18.80
2022-08-24T05:02:16.272Z,19.00
2022-08-24T05:04:48.326Z,19.10
2022-08-24T05:07:19.766Z,19.20
2022-08-24T05:09:48.904Z,19.30
2022-08-24T05:12:21.931Z,19.40
2022-08-24T05:14:59.706Z,19.50
2022-08-24T05:17:28.890Z,19.70
2022-08-24T05:19:58.438Z,19.80
2022-08-24T05:22:28.461Z,20.00
2022-08-24T05:24:58.761Z,20.20
2022-08-24T05:27:27.533Z,20.40
2022-08-24T05:29:57.087Z,20.50
2022-08-24T05:32:25.818Z,20.70
2022-08-24T05:34:56.548Z,20.90
2022-08-24T05:37:28.232Z,20.90
2022-08-24T05:40:16.963Z,21.10
2022-08-24T05:42:49.641Z,21.30
2022-08-24T05:45:19.731Z,21.50
2022-08-24T05:47:48.548Z,21.70
2022-08-24T05:50:53.081Z,21.80
2022-08-24T05:53:23.254Z,21.80
2022-08-24T05:55:52.114Z,22.00
2022-08-24T05:58:23.158Z,22.00
2022-08-24T06:01:00.476Z,22.10
2022-08-24T06:03:29.547Z,22.10
2022-08-24T06:05:58.413Z,22.20
2022-08-24T06:08:28.453Z,22.20
2022-08-24T06:11:01.004Z,22.20
2022-08-24T06:13:30.283Z,22.20
2022-08-24T06:16:20.297Z,22.40
2022-08-24T06:18:50.752Z,22.50
2022-08-24T06:21:21.453Z,22.60
2022-08-24T06:23:52.253Z,22.80
2022-08-24T06:26:39.093Z,23.00
2022-08-24T06:29:08.924Z,23.10
2022-08-24T06:31:46.630Z,23.10
2022-08-24T06:34:16.685Z,23.60
2022-08-24T06:36:46.392Z,23.70
2022-08-24T06:39:16.559Z,23.80
2022-08-24T06:41:47.230Z,23.80
2022-08-24T06:44:22.412Z,23.70
2022-08-24T06:47:00.584Z,23.60
2022-08-24T06:49:29.584Z,23.60
2022-08-24T06:51:58.474Z,23.60
2022-08-24T06:54:28.409Z,23.60
2022-08-24T06:56:58.681Z,23.60
2022-08-24T06:59:29.116Z,23.70
2022-08-24T07:01:58.297Z,23.80
2022-08-24T07:04:29.614Z,24.00
2022-08-24T07:07:18.036Z,24.10
2022-08-24T07:09:48.137Z,24.30
2022-08-24T07:12:16.860Z,24.40
2022-08-24T07:14:45.531Z,24.30
2022-08-24T07:17:14.288Z,24.20
2022-08-24T07:19:43.993Z,24.30
2022-08-24T07:22:15.028Z,24.40
2022-08-24T07:24:44.658Z,24.40
2022-08-24T07:27:15.093Z,24.50
2022-08-24T07:29:52.718Z,24.50
2022-08-24T07:32:25.490Z,24.50
2022-08-24T07:34:56.819Z,24.50
2022-08-24T07:37:26.846Z,24.60
2022-08-24T07:40:02.032Z,24.60
2022-08-24T07:42:32.372Z,24.60
2022-08-24T07:45:02.973Z,24.70
2022-08-24T07:47:38.842Z,24.60
2022-08-24T07:50:18.387Z,24.70
2022-08-24T07:52:47.106Z,25.40
2022-08-24T07:55:15.847Z,24.90
2022-08-24T07:57:46.561Z,25.10
2022-08-24T08:00:17.258Z,25.10
2022-08-24T08:02:50.782Z,25.10
2022-08-24T08:05:22.695Z,25.10
2022-08-24T08:07:53.796Z,25.10
2022-08-24T08:10:23.503Z,25.30
2022-08-24T08:12:55.258Z,25.40
2022-08-24T08:15:24.040Z,25.50
2022-08-24T08:18:01.827Z,25.50
2022-08-24T08:20:30.913Z,25.50
2022-08-24T08:23:17.489Z,25.50
2022-08-24T08:26:04.532Z,25.70
2022-08-24T08:28:46.050Z,25.80
2022-08-24T08:31:15.625Z,25.90
2022-08-24T08:33:44.803Z,26.00
2022-08-24T08:36:16.436Z,26.20
2022-08-24T08:38:50.558Z,26.40
2022-08-24T08:41:34.035Z,26.60
2022-08-24T08:44:18.566Z,26.80
2022-08-24T08:46:54.895Z,26.70
2022-08-24T08:50:00.436Z,26.80
2022-08-24T08:52:41.085Z,26.80
2022-08-24T08:55:18.830Z,26.80
2022-08-24T08:57:52.285Z,27.00
2022-08-24T09:00:24.418Z,27.10
2022-08-24T09:03:17.232Z,27.30
2022-08-24T09:06:18.885Z,27.40
2022-08-24T09:08:57.660Z,27.70
2022-08-24T09:11:32.460Z,28.10
2022-08-24T09:14:16.284Z,28.20
2022-08-24T09:16:53.611Z,28.20
2022-08-24T09:19:31.880Z,28.10
2022-08-24T09:22:08.250Z,27.90
2022-08-24T09:25:00.907Z,27.90
2022-08-24T09:27:43.274Z,27.80
2022-08-24T09:30:18.422Z,27.90
2022-08-24T09:32:56.210Z,27.80
2022-08-24T09:35:32.621Z,27.80
2022-08-24T09:38:03.730Z,27.60
2022-08-24T09:40:45.360Z,27.60
2022-08-24T09:43:32.787Z,27.70
2022-08-24T09:46:20.183Z,28.10
2022-08-24T09:49:11.199Z,28.20
2022-08-24T09:52:09.408Z,28.30
2022-08-24T09:57:21.150Z,28.20
2022-08-24T10:00:10.152Z,28.20
2022-08-24T10:02:48.715Z,28.30
2022-08-24T10:05:23.914Z,28.40
2022-08-24T10:07:57.145Z,28.40
2022-08-24T10:10:29.876Z,28.50
2022-08-24T10:15:33.820Z,28.90
2022-08-24T10:18:13.067Z,29.20
2022-08-24T10:20:50.835Z,29.40
2022-08-24T10:23:30.969Z,29.50
2022-08-24T10:26:03.242Z,29.40
2022-08-24T10:28:37.576Z,29.40
2022-08-24T10:31:12.528Z,29.20
2022-08-24T10:33:51.634Z,29.20
2022-08-24T10:36:42.155Z,29.20
2022-08-24T10:39:42.428Z,29.20
2022-08-24T10:42:43.210Z,29.50
2022-08-24T10:45:18.721Z,29.80
2022-08-24T10:48:00.212Z,30.10
2022-08-24T10:50:32.649Z,30.20
2022-08-24T10:53:22.320Z,30.40
2022-08-24T10:55:58.370Z,30.50
2022-08-24T10:58:38.451Z,30.50
2022-08-24T11:01:26.731Z,30.70
2022-08-24T11:03:59.331Z,30.80
2022-08-24T11:06:30.953Z,30.80
2022-08-24T11:09:03.821Z,30.80
2022-08-24T11:11:33.935Z,31.20
2022-08-24T11:14:04.788Z,31.30
2022-08-24T11:16:39.510Z,31.30
2022-08-24T11:21:46.858Z,31.60
2022-08-24T11:24:26.406Z,31.50
2022-08-24T11:26:56.788Z,31.40
2022-08-24T11:29:30.648Z,31.40
2022-08-24T11:32:00.317Z,31.70
2022-08-24T11:34:33.687Z,31.80
2022-08-24T11:37:04.372Z,31.90
2022-08-24T11:39:35.915Z,31.90
2022-08-24T11:42:13.019Z,31.80
2022-08-24T11:44:43.905Z,31.70
2022-08-24T11:47:30.493Z,32.00
2022-08-24T11:50:03.015Z,32.00
2022-08-24T11:52:38.174Z,32.10
2022-08-24T11:55:09.863Z,32.20
2022-08-24T11:57:47.385Z,32.30
2022-08-24T12:00:19.269Z,32.30
2022-08-24T12:02:52.647Z,32.40
2022-08-24T12:05:26.768Z,32.50
2022-08-24T12:08:02.615Z,32.50
2022-08-24T12:10:37.726Z,32.40
2022-08-24T12:13:09.976Z,32.60
2022-08-24T12:15:45.901Z,32.70
2022-08-24T12:18:24.492Z,32.80
2022-08-24T12:20:54.243Z,32.70
2022-08-24T12:23:27.349Z,32.70
2022-08-24T12:26:04.628Z,32.50
2022-08-24T12:28:37.533Z,32.60
2022-08-24T12:31:09.931Z,32.50
2022-08-24T12:33:39.903Z,32.50
2022-08-24T12:36:14.613Z,32.40
2022-08-24T12:38:46.416Z,32.40
2022-08-24T12:41:19.623Z,32.40
2022-08-24T12:43:49.904Z,32.60
2022-08-24T12:46:21.997Z,32.50
2022-08-24T12:48:54.970Z,32.50
2022-08-24T12:51:44.551Z,32.40
2022-08-24T12:54:23.618Z,32.30
2022-08-24T12:57:02.578Z,32.20
2022-08-24T12:59:34.293Z,32.10
2022-08-24T13:02:05.410Z,32.10
2022-08-24T13:04:40.680Z,31.70
2022-08-24T13:07:11.132Z,31.70
2022-08-24T13:09:42.608Z,31.80
2022-08-24T13:12:30.137Z,31.90
2022-08-24T13:15:20.147Z,31.90
2022-08-24T13:17:49.272Z,31.90
2022-08-24T13:20:20.930Z,31.80
2022-08-24T13:23:01.598Z,31.80
2022-08-24T13:25:52.057Z,32.00
2022-08-24T13:28:39.886Z,32.00
2022-08-24T13:31:15.279Z,32.10
2022-08-24T13:36:31.172Z,32.70
2022-08-24T13:39:05.453Z,32.40
2022-08-24T13:41:41.212Z,32.40
2022-08-24T13:44:12.850Z,32.50
2022-08-24T13:46:51.800Z,32.60
2022-08-24T13:49:30.864Z,32.60
2022-08-24T13:52:08.664Z,32.80
2022-08-24T13:54:44.396Z,32.80
2022-08-24T13:57:29.739Z,32.90
2022-08-24T14:00:16.553Z,32.90
2022-08-24T14:02:54.321Z,32.80
2022-08-24T14:05:28.849Z,32.80
2022-08-24T14:08:01.124Z,32.90
2022-08-24T14:10:39.700Z,32.70
2022-08-24T14:13:23.284Z,32.60
2022-08-24T14:16:18.399Z,32.10
2022-08-24T14:18:51.749Z,32.10
2022-08-24T14:21:22.191Z,31.80
2022-08-24T14:23:56.384Z,31.60
2022-08-24T14:26:43.774Z,31.30
2022-08-24T14:29:31.429Z,31.10
2022-08-24T14:32:18.813Z,30.90
2022-08-24T14:34:54.874Z,30.60
2022-08-24T14:37:25.149Z,30.70
2022-08-24T14:39:58.327Z,30.70
2022-08-24T14:42:36.681Z,30.70
2022-08-24T14:45:07.145Z,30.50
2022-08-24T14:47:41.872Z,30.50
2022-08-24T14:50:15.085Z,30.40
2022-08-24T14:52:46.865Z,30.20
2022-08-24T14:55:20.012Z,30.20
2022-08-24T14:57:58.856Z,30.10
2022-08-24T15:00:35.144Z,30.00
2022-08-24T15:03:13.469Z,30.00
2022-08-24T15:06:03.877Z,30.10
2022-08-24T15:08:42.796Z,29.90
2022-08-24T15:11:13.009Z,29.90
2022-08-24T15:13:45.624Z,30.00
2022-08-24T15:16:16.677Z,30.10
2022-08-24T15:18:49.001Z,30.20
2022-08-24T15:21:28.884Z,30.60
2022-08-24T15:24:16.726Z,30.60
2022-08-24T15:26:53.784Z,30.70
2022-08-24T15:29:23.755Z,30.80
2022-08-24T15:34:21.153Z,31.10
2022-08-24T15:37:01.622Z,31.20
2022-08-24T15:39:30.865Z,31.30
2022-08-24T15:42:00.489Z,31.10
2022-08-24T15:44:31.729Z,31.00
2022-08-24T15:47:02.096Z,31.00
2022-08-24T15:49:32.693Z,31.00
2022-08-24T15:52:05.048Z,31.00
2022-08-24T15:54:35.679Z,31.10
2022-08-24T15:57:05.809Z,31.20
2022-08-24T15:59:46.789Z,31.10
2022-08-24T16:02:34.004Z,30.90
2022-08-24T16:05:10.887Z,30.80
2022-08-24T16:07:57.692Z,30.90
2022-08-24T16:10:31.521Z,30.80
2022-08-24T16:13:07.951Z,30.70
2022-08-24T16:15:45.529Z,30.60
2022-08-24T16:18:15.168Z,30.50
2022-08-24T16:20:46.290Z,30.30
2022-08-24T16:23:22.981Z,30.10
2022-08-24T16:26:12.959Z,30.00
2022-08-24T16:28:41.518Z,29.80
2022-08-24T16:31:10.810Z,29.70
2022-08-24T16:33:44.011Z,29.70
2022-08-24T16:36:14.621Z,29.60
2022-08-24T16:38:47.170Z,29.50
2022-08-24T16:41:18.504Z,29.40
2022-08-24T16:43:47.533Z,29.20
2022-08-24T16:46:20.779Z,29.10
2022-08-24T16:48:49.600Z,29.10
2022-08-24T16:51:18.347Z,29.00
2022-08-24T16:53:47.001Z,28.80
2022-08-24T16:56:17.144Z,28.70
2022-08-24T16:58:47.149Z,28.60
2022-08-24T17:01:15.908Z,28.50
2022-08-24T17:03:44.649Z,28.40
2022-08-24T17:06:14.774Z,28.30
2022-08-24T17:08:43.550Z,28.10
2022-08-24T17:11:12.764Z,27.90
2022-08-24T17:13:50.919Z,27.80
2022-08-24T17:16:20.849Z,27.60
2022-08-24T17:18:49.722Z,27.50
2022-08-24T17:21:18.526Z,27.30
2022-08-24T17:23:47.229Z,27.10
2022-08-24T17:26:20.178Z,27.00
2022-08-24T17:28:52.395Z,26.80
2022-08-24T17:31:21.188Z,26.60
2022-08-24T17:33:50.129Z,26.40
2022-08-24T17:36:20.257Z,26.30
2022-08-24T17:38:55.875Z,26.10
2022-08-24T17:41:25.505Z,26.10
2022-08-24T17:43:55.633Z,25.90
2022-08-24T17:46:24.341Z,25.90
2022-08-24T17:48:52.993Z,25.80
2022-08-24T17:51:21.736Z,25.80
2022-08-24T17:53:50.401Z,25.70
2022-08-24T17:56:19.745Z,25.70
2022-08-24T17:59:05.869Z,25.70
2022-08-24T18:01:35.954Z,25.70
2022-08-24T18:04:04.874Z,25.60
2022-08-24T18:06:34.124Z,25.70
2022-08-24T18:09:04.900Z,25.60
2022-08-24T18:11:33.953Z,25.50
2022-08-24T18:14:02.610Z,25.50
2022-08-24T18:16:32.318Z,25.50
2022-08-24T18:19:02.821Z,25.50
2022-08-24T18:21:31.558Z,25.40
2022-08-24T18:24:01.467Z,25.40
2022-08-24T18:26:31.721Z,25.40
2022-08-24T18:29:05.734Z,25.40
2022-08-24T18:31:34.503Z,25.40
2022-08-24T18:34:04.985Z,25.40
2022-08-24T18:36:34.716Z,25.30
2022-08-24T18:39:06.969Z,25.20
2022-08-24T18:41:38.477Z,25.20
2022-08-24T18:44:08.153Z,25.10
2022-08-24T18:46:42.094Z,25.10
2022-08-24T18:49:12.459Z,25.00
2022-08-24T18:51:41.695Z,25.00
2022-08-24T18:54:11.599Z,25.00
2022-08-24T18:56:40.315Z,24.90
2022-08-24T18:59:11.220Z,24.90
2022-08-24T19:01:54.312Z,24.80
2022-08-24T19:04:29.478Z,24.80
2022-08-24T19:07:02.138Z,24.90
2022-08-24T19:09:34.146Z,24.80
2022-08-24T19:12:03.835Z,24.80
2022-08-24T19:14:32.848Z,24.70
2022-08-24T19:17:01.537Z,24.70
2022-08-24T19:19:31.509Z,24.70
2022-08-24T19:22:00.839Z,24.60
2022-08-24T19:24:30.234Z,24.60
2022-08-24T19:27:01.155Z,24.60
2022-08-24T19:29:54.430Z,24.50
2022-08-24T19:32:22.398Z,24.50
2022-08-24T19:34:53.108Z,24.50
2022-08-24T19:37:22.135Z,24.30
2022-08-24T19:39:51.068Z,24.30
2022-08-24T19:42:20.467Z,24.30
2022-08-24T19:45:07.014Z,24.30
2022-08-24T19:47:35.577Z,24.30
2022-08-24T19:50:07.871Z,24.20
2022-08-24T19:52:37.005Z,24.20
2022-08-24T19:55:06.428Z,24.20
2022-08-24T19:57:42.612Z,24.10
2022-08-24T20:00:22.245Z,24.10
2022-08-24T20:02:51.921Z,24.00
2022-08-24T20:05:22.389Z,24.00
2022-08-24T20:07:51.908Z,23.90
2022-08-24T20:10:21.633Z,23.80
2022-08-24T20:12:51.046Z,23.80
2022-08-24T20:15:20.163Z,23.70
2022-08-24T20:17:50.087Z,23.70
2022-08-24T20:20:19.926Z,23.70
2022-08-24T20:22:50.311Z,23.70
2022-08-24T20:25:19.050Z,23.80
2022-08-24T20:27:48.182Z,23.80
2022-08-24T20:30:17.450Z,23.90
2022-08-24T20:32:46.051Z,23.80
2022-08-24T20:35:16.861Z,23.80
2022-08-24T20:37:45.427Z,23.60
2022-08-24T20:40:17.717Z,23.60
2022-08-24T20:42:47.682Z,23.50
2022-08-24T20:45:16.251Z,23.40
2022-08-24T20:47:46.944Z,23.30
2022-08-24T20:50:17.350Z,23.20
2022-08-24T20:55:16.699Z,23.00
2022-08-24T20:57:49.147Z,22.90
2022-08-24T21:00:19.080Z,22.90
2022-08-24T21:02:47.952Z,22.80
2022-08-24T21:05:16.819Z,22.80
2022-08-24T21:07:49.658Z,22.80
2022-08-24T21:10:21.640Z,22.70
2022-08-24T21:12:55.260Z,22.60
2022-08-24T21:17:52.604Z,21.90
2022-08-24T21:20:22.892Z,21.70
2022-08-24T21:22:51.599Z,21.40
2022-08-24T21:25:22.047Z,21.20
2022-08-24T21:27:50.963Z,21.00
2022-08-24T21:30:21.381Z,20.70
2022-08-24T21:33:16.021Z,20.60
2022-08-24T21:35:44.612Z,20.40
2022-08-24T21:38:13.867Z,20.40
2022-08-24T21:40:45.357Z,20.30
2022-08-24T21:43:14.996Z,20.30
2022-08-24T21:45:46.728Z,20.20
2022-08-24T21:48:15.390Z,20.20
2022-08-24T21:50:44.172Z,20.20
2022-08-24T21:53:12.892Z,20.10
2022-08-24T21:55:42.572Z,20.10
2022-08-24T22:00:41.920Z,20.00
2022-08-24T22:03:10.614Z,19.90
2022-08-24T22:05:39.288Z,19.90
2022-08-24T22:08:09.907Z,19.90
2022-08-24T22:10:38.692Z,19.80
2022-08-24T22:13:07.861Z,19.80
2022-08-24T22:15:36.923Z,19.70
2022-08-24T22:18:07.112Z,19.70
2022-08-24T22:20:36.290Z,19.70
2022-08-24T22:23:05.608Z,19.70
2022-08-24T22:25:34.644Z,19.70
2022-08-24T22:28:03.405Z,19.70
2022-08-24T22:30:33.052Z,19.80
2022-08-24T22:33:02.301Z,19.80
2022-08-24T22:35:38.110Z,19.80
2022-08-24T22:38:14.150Z,19.80
2022-08-24T22:40:43.934Z,19.80
2022-08-24T22:43:13.058Z,19.80
2022-08-24T22:45:41.556Z,19.70
2022-08-24T22:48:10.349Z,19.70
2022-08-24T22:50:43.304Z,19.70
2022-08-24T22:53:12.072Z,19.70
2022-08-24T22:55:40.601Z,19.70
2022-08-24T22:58:09.412Z,19.70
2022-08-24T23:00:40.442Z,19.80
2022-08-24T23:03:09.230Z,19.70
2022-08-24T23:05:37.773Z,19.70
2022-08-24T23:08:07.899Z,19.80
2022-08-24T23:10:36.808Z,19.80
2022-08-24T23:13:05.641Z,19.80
2022-08-24T23:15:34.670Z,19.80
2022-08-24T23:18:23.382Z,19.80
2022-08-24T23:20:51.179Z,19.80
2022-08-24T23:23:21.345Z,19.80
2022-08-24T23:25:50.346Z,19.80
2022-08-24T23:28:18.902Z,19.90
2022-08-24T23:30:47.643Z,19.90
2022-08-24T23:33:16.313Z,19.90
2022-08-24T23:35:44.947Z,20.00
2022-08-24T23:38:13.556Z,20.00
2022-08-24T23:40:43.873Z,20.00
2022-08-24T23:43:12.556Z,20.10
2022-08-24T23:45:41.372Z,20.10
2022-08-24T23:48:10.236Z,20.20
2022-08-24T23:50:38.931Z,20.20
2022-08-24T23:53:07.453Z,20.30
2022-08-24T23:58:07.402Z,20.40
